sensor_id;sensor_type;location;lat;lon;timestamp;P1;durP1;ratioP1;P2;durP2;ratioP2
24008;SDS011;12217;50.792;4.372;2023-06-14T00:01:44;8.80;;;7.63;;
24008;SDS011;12217;50.792;4.372;2023-06-14T00:04:12;11.50;;;7.30;;
24008;SDS011;12217;50.792;4.372;2023-06-14T00:06:38;8.48;;;7.60;;
24008;SDS011;12217;50.792;4.372;2023-06-14T00:09:04;8.50;;;7.60;;
24008;SDS011;12217;50.792;4.372;2023-06-14T00:11:32;11.82;;;7.90;;
24008;SDS011;12217;50.792;4.372;2023-06-14T00:13:58;9.18;;;6.97;;
24008;SDS011;12217;50.792;4.372;2023-06-14T00:16:24;8.43;;;7.32;;
24008;SDS011;12217;50.792;4.372;2023-06-14T00:18:49;9.32;;;7.53;;
24008;SDS011;12217;50.792;4.372;2023-06-14T00:21:16;8.20;;;7.40;;
24008;SDS011;12217;50.792;4.372;2023-06-14T00:23:42;10.43;;;7.57;;
24008;SDS011;12217;50.792;4.372;2023-06-14T00:26:08;8.15;;;7.35;;
24008;SDS011;12217;50.792;4.372;2023-06-14T00:28:34;8.93;;;8.02;;
24008;SDS011;12217;50.792;4.372;2023-06-14T00:30:59;9.98;;;7.88;;
24008;SDS011;12217;50.792;4.372;2023-06-14T00:33:25;10.82;;;7.80;;
24008;SDS011;12217;50.792;4.372;2023-06-14T00:35:50;9.73;;;7.75;;
24008;SDS011;12217;50.792;4.372;2023-06-14T00:38:18;8.18;;;7.38;;
24008;SDS011;12217;50.792;4.372;2023-06-14T00:40:48;9.85;;;7.88;;
24008;SDS011;12217;50.792;4.372;2023-06-14T00:43:14;10.45;;;8.38;;
24008;SDS011;12217;50.792;4.372;2023-06-14T00:45:41;8.77;;;7.82;;
24008;SDS011;12217;50.792;4.372;2023-06-14T00:48:06;8.80;;;7.70;;
24008;SDS011;12217;50.792;4.372;2023-06-14T00:50:34;8.70;;;7.80;;
24008;SDS011;12217;50.792;4.372;2023-06-14T00:53:01;10.93;;;7.53;;
24008;SDS011;12217;50.792;4.372;2023-06-14T00:55:28;9.07;;;7.35;;
24008;SDS011;12217;50.792;4.372;2023-06-14T00:57:54;11.05;;;7.85;;
24008;SDS011;12217;50.792;4.372;2023-06-14T01:00:21;13.23;;;8.27;;
24008;SDS011;12217;50.792;4.372;2023-06-14T01:02:47;10.35;;;7.47;;
24008;SDS011;12217;50.792;4.372;2023-06-14T01:05:17;14.00;;;7.95;;
24008;SDS011;12217;50.792;4.372;2023-06-14T01:07:46;9.70;;;8.13;;
24008;SDS011;12217;50.792;4.372;2023-06-14T01:10:47;10.48;;;7.78;;
24008;SDS011;12217;50.792;4.372;2023-06-14T01:13:33;10.13;;;8.50;;
24008;SDS011;12217;50.792;4.372;2023-06-14T01:16:01;8.52;;;7.50;;
24008;SDS011;12217;50.792;4.372;2023-06-14T01:18:28;9.68;;;8.02;;
24008;SDS011;12217;50.792;4.372;2023-06-14T01:20:54;10.77;;;8.32;;
24008;SDS011;12217;50.792;4.372;2023-06-14T01:23:21;10.43;;;8.20;;
24008;SDS011;12217;50.792;4.372;2023-06-14T01:25:49;12.35;;;7.93;;
24008;SDS011;12217;50.792;4.372;2023-06-14T01:28:18;9.82;;;7.80;;
24008;SDS011;12217;50.792;4.372;2023-06-14T01:30:52;10.65;;;8.10;;
24008;SDS011;12217;50.792;4.372;2023-06-14T01:33:22;13.75;;;8.73;;
24008;SDS011;12217;50.792;4.372;2023-06-14T01:35:51;12.07;;;8.32;;
24008;SDS011;12217;50.792;4.372;2023-06-14T01:38:19;12.65;;;8.10;;
24008;SDS011;12217;50.792;4.372;2023-06-14T01:40:47;11.55;;;7.90;;
24008;SDS011;12217;50.792;4.372;2023-06-14T01:43:13;8.77;;;7.88;;
24008;SDS011;12217;50.792;4.372;2023-06-14T01:45:41;9.05;;;7.97;;
24008;SDS011;12217;50.792;4.372;2023-06-14T01:48:08;10.52;;;7.57;;
24008;SDS011;12217;50.792;4.372;2023-06-14T01:50:34;9.45;;;8.45;;
24008;SDS011;12217;50.792;4.372;2023-06-14T01:53:00;11.77;;;8.50;;
24008;SDS011;12217;50.792;4.372;2023-06-14T01:55:27;10.65;;;7.93;;
24008;SDS011;12217;50.792;4.372;2023-06-14T01:57:53;10.15;;;8.30;;
24008;SDS011;12217;50.792;4.372;2023-06-14T02:00:19;9.27;;;8.32;;
24008;SDS011;12217;50.792;4.372;2023-06-14T02:02:46;10.00;;;7.88;;
24008;SDS011;12217;50.792;4.372;2023-06-14T02:05:12;9.32;;;8.35;;
24008;SDS011;12217;50.792;4.372;2023-06-14T02:07:38;8.90;;;8.02;;
24008;SDS011;12217;50.792;4.372;2023-06-14T02:10:05;10.07;;;8.40;;
24008;SDS011;12217;50.792;4.372;2023-06-14T02:12:32;9.45;;;7.97;;
24008;SDS011;12217;50.792;4.372;2023-06-14T02:14:57;9.57;;;8.52;;
24008;SDS011;12217;50.792;4.372;2023-06-14T02:17:23;9.57;;;8.68;;
24008;SDS011;12217;50.792;4.372;2023-06-14T02:19:49;11.02;;;8.65;;
24008;SDS011;12217;50.792;4.372;2023-06-14T02:22:15;10.10;;;8.27;;
24008;SDS011;12217;50.792;4.372;2023-06-14T02:24:41;11.23;;;9.20;;
24008;SDS011;12217;50.792;4.372;2023-06-14T02:27:07;9.75;;;8.35;;
24008;SDS011;12217;50.792;4.372;2023-06-14T02:29:37;10.30;;;8.57;;
24008;SDS011;12217;50.792;4.372;2023-06-14T02:32:06;11.52;;;8.75;;
24008;SDS011;12217;50.792;4.372;2023-06-14T02:34:32;11.85;;;9.27;;
24008;SDS011;12217;50.792;4.372;2023-06-14T02:36:59;13.30;;;9.55;;
24008;SDS011;12217;50.792;4.372;2023-06-14T02:39:24;10.30;;;9.05;;
24008;SDS011;12217;50.792;4.372;2023-06-14T02:41:50;12.60;;;9.00;;
24008;SDS011;12217;50.792;4.372;2023-06-14T02:44:19;11.90;;;8.55;;
24008;SDS011;12217;50.792;4.372;2023-06-14T02:46:44;10.35;;;9.20;;
24008;SDS011;12217;50.792;4.372;2023-06-14T02:49:10;9.93;;;8.50;;
24008;SDS011;12217;50.792;4.372;2023-06-14T02:51:36;11.13;;;8.68;;
24008;SDS011;12217;50.792;4.372;2023-06-14T02:54:02;9.63;;;8.32;;
24008;SDS011;12217;50.792;4.372;2023-06-14T02:56:28;17.45;;;9.05;;
24008;SDS011;12217;50.792;4.372;2023-06-14T02:58:54;11.77;;;9.88;;
24008;SDS011;12217;50.792;4.372;2023-06-14T03:01:20;9.85;;;8.85;;
24008;SDS011;12217;50.792;4.372;2023-06-14T03:03:46;10.25;;;9.23;;
24008;SDS011;12217;50.792;4.372;2023-06-14T03:06:12;13.10;;;9.50;;
24008;SDS011;12217;50.792;4.372;2023-06-14T03:08:41;12.45;;;9.60;;
24008;SDS011;12217;50.792;4.372;2023-06-14T03:11:07;11.15;;;9.18;;
24008;SDS011;12217;50.792;4.372;2023-06-14T03:13:34;11.82;;;9.38;;
24008;SDS011;12217;50.792;4.372;2023-06-14T03:16:00;12.95;;;9.25;;
24008;SDS011;12217;50.792;4.372;2023-06-14T03:18:27;13.65;;;10.20;;
24008;SDS011;12217;50.792;4.372;2023-06-14T03:21:00;12.65;;;9.23;;
24008;SDS011;12217;50.792;4.372;2023-06-14T03:23:26;10.48;;;9.48;;
24008;SDS011;12217;50.792;4.372;2023-06-14T03:25:52;12.38;;;9.88;;
24008;SDS011;12217;50.792;4.372;2023-06-14T03:28:18;11.25;;;10.02;;
24008;SDS011;12217;50.792;4.372;2023-06-14T03:30:44;10.75;;;9.85;;
24008;SDS011;12217;50.792;4.372;2023-06-14T03:33:09;12.95;;;9.13;;
24008;SDS011;12217;50.792;4.372;2023-06-14T03:35:35;10.48;;;9.48;;
24008;SDS011;12217;50.792;4.372;2023-06-14T03:38:01;15.82;;;10.25;;
24008;SDS011;12217;50.792;4.372;2023-06-14T03:40:27;11.43;;;10.27;;
24008;SDS011;12217;50.792;4.372;2023-06-14T03:42:53;11.27;;;10.00;;
24008;SDS011;12217;50.792;4.372;2023-06-14T03:45:20;11.07;;;9.57;;
24008;SDS011;12217;50.792;4.372;2023-06-14T03:47:46;10.45;;;9.38;;
24008;SDS011;12217;50.792;4.372;2023-06-14T03:50:12;11.65;;;10.23;;
24008;SDS011;12217;50.792;4.372;2023-06-14T03:52:43;10.35;;;9.30;;
24008;SDS011;12217;50.792;4.372;2023-06-14T03:55:09;11.32;;;9.57;;
24008;SDS011;12217;50.792;4.372;2023-06-14T03:57:35;12.13;;;10.10;;
24008;SDS011;12217;50.792;4.372;2023-06-14T04:00:01;15.38;;;9.57;;
24008;SDS011;12217;50.792;4.372;2023-06-14T04:02:30;11.40;;;9.90;;
24008;SDS011;12217;50.792;4.372;2023-06-14T04:04:55;11.00;;;9.90;;
24008;SDS011;12217;50.792;4.372;2023-06-14T04:07:22;11.63;;;9.50;;
24008;SDS011;12217;50.792;4.372;2023-06-14T04:09:48;13.25;;;9.57;;
24008;SDS011;12217;50.792;4.372;2023-06-14T04:12:14;11.05;;;9.68;;
24008;SDS011;12217;50.792;4.372;2023-06-14T04:14:40;10.45;;;9.45;;
24008;SDS011;12217;50.792;4.372;2023-06-14T04:17:06;12.93;;;9.93;;
24008;SDS011;12217;50.792;4.372;2023-06-14T04:19:31;11.50;;;9.50;;
24008;SDS011;12217;50.792;4.372;2023-06-14T04:21:58;12.60;;;10.05;;
24008;SDS011;12217;50.792;4.372;2023-06-14T04:24:27;14.93;;;10.45;;
24008;SDS011;12217;50.792;4.372;2023-06-14T04:26:57;12.25;;;9.90;;
24008;SDS011;12217;50.792;4.372;2023-06-14T04:29:24;11.88;;;10.23;;
24008;SDS011;12217;50.792;4.372;2023-06-14T04:31:51;10.50;;;9.35;;
24008;SDS011;12217;50.792;4.372;2023-06-14T04:34:19;13.40;;;10.32;;
24008;SDS011;12217;50.792;4.372;2023-06-14T04:36:46;15.07;;;10.30;;
24008;SDS011;12217;50.792;4.372;2023-06-14T04:39:18;11.38;;;9.70;;
24008;SDS011;12217;50.792;4.372;2023-06-14T04:41:44;11.43;;;9.95;;
24008;SDS011;12217;50.792;4.372;2023-06-14T04:44:10;11.02;;;9.93;;
24008;SDS011;12217;50.792;4.372;2023-06-14T04:46:37;11.52;;;9.50;;
24008;SDS011;12217;50.792;4.372;2023-06-14T04:49:11;11.40;;;9.98;;
24008;SDS011;12217;50.792;4.372;2023-06-14T04:51:39;15.32;;;10.35;;
24008;SDS011;12217;50.792;4.372;2023-06-14T04:54:05;11.70;;;10.15;;
24008;SDS011;12217;50.792;4.372;2023-06-14T04:56:34;12.18;;;10.00;;
24008;SDS011;12217;50.792;4.372;2023-06-14T04:59:02;11.02;;;9.88;;
24008;SDS011;12217;50.792;4.372;2023-06-14T05:01:34;12.60;;;10.32;;
24008;SDS011;12217;50.792;4.372;2023-06-14T05:03:59;10.48;;;9.45;;
24008;SDS011;12217;50.792;4.372;2023-06-14T05:06:25;12.98;;;9.93;;
24008;SDS011;12217;50.792;4.372;2023-06-14T05:08:53;17.55;;;10.70;;
24008;SDS011;12217;50.792;4.372;2023-06-14T05:11:19;13.55;;;10.95;;
24008;SDS011;12217;50.792;4.372;2023-06-14T05:13:45;11.63;;;10.40;;
24008;SDS011;12217;50.792;4.372;2023-06-14T05:16:11;13.80;;;9.93;;
24008;SDS011;12217;50.792;4.372;2023-06-14T05:18:37;13.32;;;10.13;;
24008;SDS011;12217;50.792;4.372;2023-06-14T05:21:05;15.88;;;10.40;;
24008;SDS011;12217;50.792;4.372;2023-06-14T05:23:31;13.45;;;10.40;;
24008;SDS011;12217;50.792;4.372;2023-06-14T05:25:56;13.25;;;9.73;;
24008;SDS011;12217;50.792;4.372;2023-06-14T05:28:22;13.50;;;10.07;;
24008;SDS011;12217;50.792;4.372;2023-06-14T05:30:48;12.55;;;10.23;;
24008;SDS011;12217;50.792;4.372;2023-06-14T05:33:14;12.52;;;9.98;;
24008;SDS011;12217;50.792;4.372;2023-06-14T05:35:40;12.82;;;10.02;;
24008;SDS011;12217;50.792;4.372;2023-06-14T05:38:06;10.52;;;9.35;;
24008;SDS011;12217;50.792;4.372;2023-06-14T05:40:32;12.63;;;9.75;;
24008;SDS011;12217;50.792;4.372;2023-06-14T05:42:58;15.98;;;10.07;;
24008;SDS011;12217;50.792;4.372;2023-06-14T05:45:24;16.08;;;9.77;;
24008;SDS011;12217;50.792;4.372;2023-06-14T05:47:49;18.45;;;10.30;;
24008;SDS011;12217;50.792;4.372;2023-06-14T05:50:15;11.80;;;9.40;;
24008;SDS011;12217;50.792;4.372;2023-06-14T05:52:41;11.77;;;9.55;;
24008;SDS011;12217;50.792;4.372;2023-06-14T05:55:11;13.70;;;9.77;;
24008;SDS011;12217;50.792;4.372;2023-06-14T05:57:37;16.75;;;10.15;;
24008;SDS011;12217;50.792;4.372;2023-06-14T06:00:03;13.25;;;9.68;;
24008;SDS011;12217;50.792;4.372;2023-06-14T06:02:36;11.80;;;9.68;;
24008;SDS011;12217;50.792;4.372;2023-06-14T06:05:05;12.90;;;9.18;;
24008;SDS011;12217;50.792;4.372;2023-06-14T06:07:31;11.30;;;8.80;;
24008;SDS011;12217;50.792;4.372;2023-06-14T06:09:56;14.02;;;8.75;;
24008;SDS011;12217;50.792;4.372;2023-06-14T06:12:22;13.35;;;8.88;;
24008;SDS011;12217;50.792;4.372;2023-06-14T06:14:48;10.27;;;9.18;;
24008;SDS011;12217;50.792;4.372;2023-06-14T06:17:13;12.73;;;9.07;;
24008;SDS011;12217;50.792;4.372;2023-06-14T06:19:39;11.85;;;9.07;;
24008;SDS011;12217;50.792;4.372;2023-06-14T06:22:05;11.23;;;9.68;;
24008;SDS011;12217;50.792;4.372;2023-06-14T06:24:31;13.07;;;9.35;;
24008;SDS011;12217;50.792;4.372;2023-06-14T06:26:57;13.95;;;9.80;;
24008;SDS011;12217;50.792;4.372;2023-06-14T06:29:23;13.77;;;9.35;;
24008;SDS011;12217;50.792;4.372;2023-06-14T06:31:48;12.52;;;8.45;;
24008;SDS011;12217;50.792;4.372;2023-06-14T06:34:14;11.20;;;8.82;;
24008;SDS011;12217;50.792;4.372;2023-06-14T06:36:41;10.38;;;9.05;;
24008;SDS011;12217;50.792;4.372;2023-06-14T06:39:07;13.02;;;9.48;;
24008;SDS011;12217;50.792;4.372;2023-06-14T06:41:35;10.38;;;8.85;;
24008;SDS011;12217;50.792;4.372;2023-06-14T06:44:04;11.88;;;8.52;;
24008;SDS011;12217;50.792;4.372;2023-06-14T06:46:38;10.38;;;8.90;;
24008;SDS011;12217;50.792;4.372;2023-06-14T06:49:06;11.30;;;8.85;;
24008;SDS011;12217;50.792;4.372;2023-06-14T06:51:35;9.63;;;8.63;;
24008;SDS011;12217;50.792;4.372;2023-06-14T06:54:01;12.27;;;9.23;;
24008;SDS011;12217;50.792;4.372;2023-06-14T06:56:27;14.20;;;8.35;;
24008;SDS011;12217;50.792;4.372;2023-06-14T06:58:53;11.75;;;8.80;;
24008;SDS011;12217;50.792;4.372;2023-06-14T07:01:18;12.93;;;8.90;;
24008;SDS011;12217;50.792;4.372;2023-06-14T07:03:44;10.77;;;8.38;;
24008;SDS011;12217;50.792;4.372;2023-06-14T07:06:11;9.60;;;8.68;;
24008;SDS011;12217;50.792;4.372;2023-06-14T07:08:37;12.35;;;9.02;;
24008;SDS011;12217;50.792;4.372;2023-06-14T07:11:03;11.10;;;8.50;;
24008;SDS011;12217;50.792;4.372;2023-06-14T07:13:30;9.77;;;8.32;;
24008;SDS011;12217;50.792;4.372;2023-06-14T07:15:57;10.02;;;8.00;;
24008;SDS011;12217;50.792;4.372;2023-06-14T07:18:28;8.85;;;8.13;;
24008;SDS011;12217;50.792;4.372;2023-06-14T07:20:54;10.77;;;8.20;;
24008;SDS011;12217;50.792;4.372;2023-06-14T07:23:20;16.92;;;8.45;;
24008;SDS011;12217;50.792;4.372;2023-06-14T07:25:46;9.02;;;7.95;;
24008;SDS011;12217;50.792;4.372;2023-06-14T07:28:11;10.48;;;8.05;;
24008;SDS011;12217;50.792;4.372;2023-06-14T07:30:37;13.88;;;7.47;;
24008;SDS011;12217;50.792;4.372;2023-06-14T07:33:03;10.98;;;8.18;;
24008;SDS011;12217;50.792;4.372;2023-06-14T07:35:28;9.40;;;8.13;;
24008;SDS011;12217;50.792;4.372;2023-06-14T07:37:54;9.60;;;8.20;;
24008;SDS011;12217;50.792;4.372;2023-06-14T07:40:20;14.73;;;8.15;;
24008;SDS011;12217;50.792;4.372;2023-06-14T07:42:47;9.77;;;7.75;;
24008;SDS011;12217;50.792;4.372;2023-06-14T07:45:14;8.82;;;7.93;;
24008;SDS011;12217;50.792;4.372;2023-06-14T07:47:40;10.98;;;8.23;;
24008;SDS011;12217;50.792;4.372;2023-06-14T07:50:06;11.05;;;8.15;;
24008;SDS011;12217;50.792;4.372;2023-06-14T07:52:32;11.52;;;8.00;;
24008;SDS011;12217;50.792;4.372;2023-06-14T07:54:57;10.20;;;7.78;;
24008;SDS011;12217;50.792;4.372;2023-06-14T07:57:23;9.98;;;7.97;;
24008;SDS011;12217;50.792;4.372;2023-06-14T07:59:49;11.07;;;8.57;;
24008;SDS011;12217;50.792;4.372;2023-06-14T08:02:15;11.77;;;7.78;;
24008;SDS011;12217;50.792;4.372;2023-06-14T08:04:41;8.10;;;7.30;;
24008;SDS011;12217;50.792;4.372;2023-06-14T08:07:07;9.73;;;7.68;;
24008;SDS011;12217;50.792;4.372;2023-06-14T08:09:32;10.82;;;7.70;;
24008;SDS011;12217;50.792;4.372;2023-06-14T08:11:58;9.85;;;7.97;;
24008;SDS011;12217;50.792;4.372;2023-06-14T08:14:25;8.60;;;7.65;;
24008;SDS011;12217;50.792;4.372;2023-06-14T08:16:52;13.50;;;8.02;;
24008;SDS011;12217;50.792;4.372;2023-06-14T08:19:18;12.57;;;7.80;;
24008;SDS011;12217;50.792;4.372;2023-06-14T08:21:44;11.57;;;7.90;;
24008;SDS011;12217;50.792;4.372;2023-06-14T08:24:11;9.45;;;7.25;;
24008;SDS011;12217;50.792;4.372;2023-06-14T08:26:37;8.30;;;7.50;;
24008;SDS011;12217;50.792;4.372;2023-06-14T08:29:04;7.75;;;6.80;;
24008;SDS011;12217;50.792;4.372;2023-06-14T08:31:31;17.77;;;7.82;;
24008;SDS011;12217;50.792;4.372;2023-06-14T08:33:58;11.90;;;7.45;;
24008;SDS011;12217;50.792;4.372;2023-06-14T08:36:24;10.50;;;7.32;;
24008;SDS011;12217;50.792;4.372;2023-06-14T08:38:50;10.32;;;7.35;;
24008;SDS011;12217;50.792;4.372;2023-06-14T08:41:22;14.20;;;7.68;;
24008;SDS011;12217;50.792;4.372;2023-06-14T08:43:51;8.35;;;7.00;;
24008;SDS011;12217;50.792;4.372;2023-06-14T08:46:17;9.73;;;6.63;;
24008;SDS011;12217;50.792;4.372;2023-06-14T08:48:50;7.72;;;7.00;;
24008;SDS011;12217;50.792;4.372;2023-06-14T08:51:18;8.32;;;6.63;;
24008;SDS011;12217;50.792;4.372;2023-06-14T08:53:46;7.45;;;6.65;;
24008;SDS011;12217;50.792;4.372;2023-06-14T08:56:17;9.82;;;7.40;;
24008;SDS011;12217;50.792;4.372;2023-06-14T08:58:45;13.68;;;7.60;;
24008;SDS011;12217;50.792;4.372;2023-06-14T09:01:13;17.40;;;7.47;;
24008;SDS011;12217;50.792;4.372;2023-06-14T09:03:42;12.00;;;7.60;;
24008;SDS011;12217;50.792;4.372;2023-06-14T09:06:09;10.57;;;7.90;;
24008;SDS011;12217;50.792;4.372;2023-06-14T09:08:42;8.23;;;7.22;;
24008;SDS011;12217;50.792;4.372;2023-06-14T09:11:12;8.98;;;7.47;;
24008;SDS011;12217;50.792;4.372;2023-06-14T09:13:39;12.23;;;6.82;;
24008;SDS011;12217;50.792;4.372;2023-06-14T09:16:05;8.98;;;7.05;;
24008;SDS011;12217;50.792;4.372;2023-06-14T09:18:35;9.18;;;7.50;;
24008;SDS011;12217;50.792;4.372;2023-06-14T09:21:01;9.05;;;7.20;;
24008;SDS011;12217;50.792;4.372;2023-06-14T09:23:27;8.93;;;7.55;;
24008;SDS011;12217;50.792;4.372;2023-06-14T09:25:52;12.00;;;7.93;;
24008;SDS011;12217;50.792;4.372;2023-06-14T09:28:18;8.73;;;7.72;;
24008;SDS011;12217;50.792;4.372;2023-06-14T09:30:47;10.13;;;8.15;;
24008;SDS011;12217;50.792;4.372;2023-06-14T09:33:16;11.32;;;7.85;;
24008;SDS011;12217;50.792;4.372;2023-06-14T09:35:45;10.00;;;7.28;;
24008;SDS011;12217;50.792;4.372;2023-06-14T09:38:11;15.75;;;7.60;;
24008;SDS011;12217;50.792;4.372;2023-06-14T09:40:36;11.65;;;7.63;;
24008;SDS011;12217;50.792;4.372;2023-06-14T09:43:04;10.18;;;7.22;;
24008;SDS011;12217;50.792;4.372;2023-06-14T09:45:31;7.82;;;7.03;;
24008;SDS011;12217;50.792;4.372;2023-06-14T09:47:58;10.20;;;7.38;;
24008;SDS011;12217;50.792;4.372;2023-06-14T09:50:24;12.73;;;7.18;;
24008;SDS011;12217;50.792;4.372;2023-06-14T09:52:51;9.40;;;6.95;;
24008;SDS011;12217;50.792;4.372;2023-06-14T09:55:21;10.38;;;7.55;;
24008;SDS011;12217;50.792;4.372;2023-06-14T09:57:49;13.27;;;7.80;;
24008;SDS011;12217;50.792;4.372;2023-06-14T10:00:16;8.90;;;7.55;;
24008;SDS011;12217;50.792;4.372;2023-06-14T10:02:43;10.43;;;7.07;;
24008;SDS011;12217;50.792;4.372;2023-06-14T10:05:16;15.35;;;7.63;;
24008;SDS011;12217;50.792;4.372;2023-06-14T10:07:48;14.15;;;7.38;;
24008;SDS011;12217;50.792;4.372;2023-06-14T10:10:18;11.40;;;7.10;;
24008;SDS011;12217;50.792;4.372;2023-06-14T10:12:44;9.90;;;7.13;;
24008;SDS011;12217;50.792;4.372;2023-06-14T10:15:11;13.98;;;7.88;;
24008;SDS011;12217;50.792;4.372;2023-06-14T10:17:50;12.32;;;7.07;;
24008;SDS011;12217;50.792;4.372;2023-06-14T10:22:50;8.50;;;7.60;;
24008;SDS011;12217;50.792;4.372;2023-06-14T10:25:27;11.23;;;7.67;;
24008;SDS011;12217;50.792;4.372;2023-06-14T10:30:58;9.73;;;6.97;;
24008;SDS011;12217;50.792;4.372;2023-06-14T10:39:08;7.00;;;6.30;;
24008;SDS011;12217;50.792;4.372;2023-06-14T10:41:41;9.80;;;6.50;;
24008;SDS011;12217;50.792;4.372;2023-06-14T10:46:47;7.45;;;6.25;;
24008;SDS011;12217;50.792;4.372;2023-06-14T10:49:19;6.78;;;5.80;;
24008;SDS011;12217;50.792;4.372;2023-06-14T10:51:55;8.40;;;5.63;;
24008;SDS011;12217;50.792;4.372;2023-06-14T10:54:23;10.27;;;6.28;;
24008;SDS011;12217;50.792;4.372;2023-06-14T10:56:51;8.35;;;5.78;;
24008;SDS011;12217;50.792;4.372;2023-06-14T10:59:19;5.82;;;5.32;;
24008;SDS011;12217;50.792;4.372;2023-06-14T11:04:50;8.68;;;5.80;;
24008;SDS011;12217;50.792;4.372;2023-06-14T11:10:32;7.78;;;5.55;;
24008;SDS011;12217;50.792;4.372;2023-06-14T11:13:02;8.18;;;5.50;;
24008;SDS011;12217;50.792;4.372;2023-06-14T11:15:29;9.85;;;5.40;;
24008;SDS011;12217;50.792;4.372;2023-06-14T11:17:55;6.50;;;5.53;;
24008;SDS011;12217;50.792;4.372;2023-06-14T11:20:25;6.10;;;5.50;;
24008;SDS011;12217;50.792;4.372;2023-06-14T11:22:51;6.88;;;6.00;;
24008;SDS011;12217;50.792;4.372;2023-06-14T11:25:18;6.47;;;5.82;;
24008;SDS011;12217;50.792;4.372;2023-06-14T11:27:44;11.02;;;6.20;;
24008;SDS011;12217;50.792;4.372;2023-06-14T11:30:10;8.18;;;5.82;;
24008;SDS011;12217;50.792;4.372;2023-06-14T11:32:38;6.22;;;5.28;;
24008;SDS011;12217;50.792;4.372;2023-06-14T11:35:04;7.90;;;5.68;;
24008;SDS011;12217;50.792;4.372;2023-06-14T11:37:31;9.60;;;6.20;;
24008;SDS011;12217;50.792;4.372;2023-06-14T11:40:00;7.15;;;5.70;;
24008;SDS011;12217;50.792;4.372;2023-06-14T11:42:28;7.03;;;5.50;;
24008;SDS011;12217;50.792;4.372;2023-06-14T11:44:55;6.05;;;5.47;;
24008;SDS011;12217;50.792;4.372;2023-06-14T11:47:21;5.75;;;5.05;;
24008;SDS011;12217;50.792;4.372;2023-06-14T11:49:47;7.60;;;5.97;;
24008;SDS011;12217;50.792;4.372;2023-06-14T11:52:13;6.93;;;5.90;;
24008;SDS011;12217;50.792;4.372;2023-06-14T11:54:39;9.05;;;5.60;;
24008;SDS011;12217;50.792;4.372;2023-06-14T11:57:06;8.38;;;5.30;;
24008;SDS011;12217;50.792;4.372;2023-06-14T11:59:32;6.43;;;5.45;;
24008;SDS011;12217;50.792;4.372;2023-06-14T12:02:03;7.13;;;5.75;;
24008;SDS011;12217;50.792;4.372;2023-06-14T12:04:29;10.65;;;5.65;;
24008;SDS011;12217;50.792;4.372;2023-06-14T12:06:55;6.90;;;6.05;;
24008;SDS011;12217;50.792;4.372;2023-06-14T12:09:22;6.53;;;5.40;;
24008;SDS011;12217;50.792;4.372;2023-06-14T12:11:59;8.90;;;5.65;;
24008;SDS011;12217;50.792;4.372;2023-06-14T12:14:30;8.20;;;5.57;;
24008;SDS011;12217;50.792;4.372;2023-06-14T12:17:05;8.15;;;5.80;;
24008;SDS011;12217;50.792;4.372;2023-06-14T12:19:32;10.20;;;5.55;;
24008;SDS011;12217;50.792;4.372;2023-06-14T12:22:01;6.05;;;5.25;;
24008;SDS011;12217;50.792;4.372;2023-06-14T12:24:30;7.93;;;5.65;;
24008;SDS011;12217;50.792;4.372;2023-06-14T12:26:57;7.07;;;5.68;;
24008;SDS011;12217;50.792;4.372;2023-06-14T12:29:28;12.30;;;7.95;;
24008;SDS011;12217;50.792;4.372;2023-06-14T12:31:54;8.65;;;6.60;;
24008;SDS011;12217;50.792;4.372;2023-06-14T12:34:22;9.55;;;5.60;;
24008;SDS011;12217;50.792;4.372;2023-06-14T12:36:49;7.70;;;5.60;;
24008;SDS011;12217;50.792;4.372;2023-06-14T12:39:15;11.50;;;5.72;;
24008;SDS011;12217;50.792;4.372;2023-06-14T12:41:41;7.55;;;5.20;;
24008;SDS011;12217;50.792;4.372;2023-06-14T12:44:07;8.23;;;5.60;;
24008;SDS011;12217;50.792;4.372;2023-06-14T12:46:33;6.65;;;5.03;;
24008;SDS011;12217;50.792;4.372;2023-06-14T12:49:01;5.18;;;4.63;;
24008;SDS011;12217;50.792;4.372;2023-06-14T12:51:27;6.25;;;4.43;;
24008;SDS011;12217;50.792;4.372;2023-06-14T12:53:52;8.18;;;5.22;;
24008;SDS011;12217;50.792;4.372;2023-06-14T12:56:20;8.10;;;4.85;;
24008;SDS011;12217;50.792;4.372;2023-06-14T12:58:45;5.28;;;4.80;;
24008;SDS011;12217;50.792;4.372;2023-06-14T13:01:11;8.43;;;4.85;;
24008;SDS011;12217;50.792;4.372;2023-06-14T13:03:37;5.90;;;5.00;;
24008;SDS011;12217;50.792;4.372;2023-06-14T13:06:02;9.25;;;5.72;;
24008;SDS011;12217;50.792;4.372;2023-06-14T13:08:29;9.63;;;4.60;;
24008;SDS011;12217;50.792;4.372;2023-06-14T13:10:56;7.38;;;4.90;;
24008;SDS011;12217;50.792;4.372;2023-06-14T13:13:22;6.78;;;5.10;;
24008;SDS011;12217;50.792;4.372;2023-06-14T13:15:48;7.47;;;4.65;;
24008;SDS011;12217;50.792;4.372;2023-06-14T13:18:14;5.40;;;4.47;;
24008;SDS011;12217;50.792;4.372;2023-06-14T13:20:41;9.90;;;4.78;;
24008;SDS011;12217;50.792;4.372;2023-06-14T13:23:07;8.63;;;4.68;;
24008;SDS011;12217;50.792;4.372;2023-06-14T13:25:35;6.63;;;4.45;;
24008;SDS011;12217;50.792;4.372;2023-06-14T13:28:01;8.50;;;4.43;;
24008;SDS011;12217;50.792;4.372;2023-06-14T13:30:28;6.60;;;4.28;;
24008;SDS011;12217;50.792;4.372;2023-06-14T13:32:54;6.72;;;4.57;;
24008;SDS011;12217;50.792;4.372;2023-06-14T13:35:21;7.28;;;4.40;;
24008;SDS011;12217;50.792;4.372;2023-06-14T13:37:47;9.55;;;4.60;;
24008;SDS011;12217;50.792;4.372;2023-06-14T13:40:13;7.28;;;4.15;;
24008;SDS011;12217;50.792;4.372;2023-06-14T13:42:39;8.23;;;4.00;;
24008;SDS011;12217;50.792;4.372;2023-06-14T13:45:05;9.02;;;4.00;;
24008;SDS011;12217;50.792;4.372;2023-06-14T13:47:32;7.97;;;4.55;;
24008;SDS011;12217;50.792;4.372;2023-06-14T13:49:58;7.55;;;4.10;;
24008;SDS011;12217;50.792;4.372;2023-06-14T13:52:24;5.72;;;3.83;;
24008;SDS011;12217;50.792;4.372;2023-06-14T13:54:50;7.30;;;3.78;;
24008;SDS011;12217;50.792;4.372;2023-06-14T13:57:16;4.95;;;4.43;;
24008;SDS011;12217;50.792;4.372;2023-06-14T13:59:42;10.60;;;4.38;;
24008;SDS011;12217;50.792;4.372;2023-06-14T14:02:12;4.35;;;3.90;;
24008;SDS011;12217;50.792;4.372;2023-06-14T14:04:38;6.85;;;3.95;;
24008;SDS011;12217;50.792;4.372;2023-06-14T14:07:05;7.22;;;3.90;;
24008;SDS011;12217;50.792;4.372;2023-06-14T14:09:34;6.32;;;3.95;;
24008;SDS011;12217;50.792;4.372;2023-06-14T14:12:01;7.05;;;3.53;;
24008;SDS011;12217;50.792;4.372;2023-06-14T14:14:29;6.82;;;3.67;;
24008;SDS011;12217;50.792;4.372;2023-06-14T14:16:57;6.78;;;3.10;;
24008;SDS011;12217;50.792;4.372;2023-06-14T14:19:22;5.25;;;3.42;;
24008;SDS011;12217;50.792;4.372;2023-06-14T14:21:48;6.28;;;3.40;;
24008;SDS011;12217;50.792;4.372;2023-06-14T14:24:14;6.95;;;3.33;;
24008;SDS011;12217;50.792;4.372;2023-06-14T14:26:41;5.53;;;2.92;;
24008;SDS011;12217;50.792;4.372;2023-06-14T14:29:07;4.60;;;3.15;;
24008;SDS011;12217;50.792;4.372;2023-06-14T14:31:33;4.15;;;2.78;;
24008;SDS011;12217;50.792;4.372;2023-06-14T14:33:59;4.30;;;2.88;;
24008;SDS011;12217;50.792;4.372;2023-06-14T14:36:24;4.57;;;3.08;;
24008;SDS011;12217;50.792;4.372;2023-06-14T14:38:50;7.25;;;2.95;;
24008;SDS011;12217;50.792;4.372;2023-06-14T14:41:16;3.78;;;2.58;;
24008;SDS011;12217;50.792;4.372;2023-06-14T14:43:42;3.58;;;2.55;;
24008;SDS011;12217;50.792;4.372;2023-06-14T14:46:08;5.53;;;2.65;;
24008;SDS011;12217;50.792;4.372;2023-06-14T14:48:35;3.38;;;2.58;;
24008;SDS011;12217;50.792;4.372;2023-06-14T14:51:00;4.45;;;2.53;;
24008;SDS011;12217;50.792;4.372;2023-06-14T14:53:26;4.43;;;2.20;;
24008;SDS011;12217;50.792;4.372;2023-06-14T14:55:52;6.95;;;2.17;;
24008;SDS011;12217;50.792;4.372;2023-06-14T14:58:18;4.65;;;2.20;;
24008;SDS011;12217;50.792;4.372;2023-06-14T15:00:44;3.10;;;2.20;;